Time;durP1;ratioP1;P1;durP2;ratioP2;P2;SDS_P1;SDS_P2;PMS_P1;PMS_P2;Temp;Humidity;BMP_temperature;BMP_pressure;BME280_temperature;BME280_humidity;BME280_pressure;Samples;Min_cycle;Max_cycle;Signal;HPM_P1;HPM_P2
2024/02/20 00:02:25;;;;;;;18.17;3.47;;;;;;;10.01;84.52;100689.59;4754428;30;20087;-80
2024/02/20 00:04:52;;;;;;;18.58;4.18;;;;;;;10.01;84.61;100691.34;4770488;30;20102;-80
2024/02/20 00:07:19;;;;;;;18.67;3.65;;;;;;;10.02;84.51;100703.63;4770028;30;20052;-82
2024/02/20 00:09:47;;;;;;;15.90;3.38;;;;;;;10.01;84.67;100689.59;4754484;30;20056;-80
2024/02/20 00:12:29;;;;;;;15.20;3.10;;;;;;;9.99;83.63;100698.47;4770200;30;20075;-80
2024/02/20 00:14:57;;;;;;;16.50;3.45;;;;;;;10.02;84.29;100693.94;4770415;30;20117;-80
2024/02/20 00:17:24;;;;;;;19.15;3.00;;;;;;;10.03;84.53;100689.53;4769853;30;20506;-80
2024/02/20 00:19:51;;;;;;;15.93;3.08;;;;;;;10.03;84.65;100694.81;4770132;30;20125;-79
2024/02/20 00:22:17;;;;;;;23.23;3.90;;;;;;;10.04;84.48;100701.78;4770046;30;20063;-80
2024/02/20 00:24:44;;;;;;;16.98;3.33;;;;;;;10.03;84.39;100700.06;4769183;30;20070;-83
2024/02/20 00:27:10;;;;;;;22.55;3.38;;;;;;;10.03;84.24;100702.69;4768756;30;20111;-78
2024/02/20 00:29:37;;;;;;;18.58;3.58;;;;;;;10.02;84.37;100704.44;4770106;30;20094;-80
2024/02/20 00:32:04;;;;;;;18.25;3.45;;;;;;;10.02;84.15;100704.44;4769662;30;20055;-80
2024/02/20 00:34:31;;;;;;;20.15;3.58;;;;;;;10.02;83.98;100709.72;4770054;30;20147;-79
2024/02/20 00:36:58;;;;;;;15.20;3.22;;;;;;;10.01;84.08;100705.38;4769680;30;20063;-80
2024/02/20 00:39:27;;;;;;;22.90;3.45;;;;;;;10.00;84.30;100708.94;4769848;30;20051;-86
2024/02/20 00:41:54;;;;;;;20.38;3.97;;;;;;;10.00;84.32;100710.69;4769922;30;20155;-80
2024/02/20 00:44:20;;;;;;;18.50;3.35;;;;;;;9.99;84.35;100722.13;4769987;30;20464;-83
2024/02/20 00:46:47;;;;;;;18.67;3.63;;;;;;;9.98;84.29;100716.00;4769522;30;20472;-80
2024/02/20 00:49:13;;;;;;;20.50;3.38;;;;;;;9.98;83.87;100718.63;4769888;30;20091;-80
2024/02/20 00:51:40;;;;;;;22.95;4.18;;;;;;;9.97;83.80;100723.97;4768549;30;20051;-83
2024/02/20 00:54:07;;;;;;;20.00;3.60;;;;;;;9.95;83.84;100718.78;4769489;30;20056;-77
2024/02/20 00:56:34;;;;;;;20.92;3.65;;;;;;;9.93;83.55;100731.13;4769443;30;20063;-80
2024/02/20 00:59:02;;;;;;;19.58;3.70;;;;;;;9.91;83.99;100732.97;4769472;30;20064;-79
2024/02/20 01:01:29;;;;;;;18.10;3.50;;;;;;;9.90;84.26;100729.47;4769695;30;20055;-80
2024/02/20 01:03:56;;;;;;;21.42;4.05;;;;;;;9.89;84.17;100737.41;4769611;30;20081;-80
2024/02/20 01:06:22;;;;;;;25.92;4.65;;;;;;;9.89;84.03;100742.69;4769546;30;20059;-83
2024/02/20 01:08:49;;;;;;;21.60;3.97;;;;;;;9.88;83.49;100740.97;4769158;30;20514;-77
2024/02/20 01:11:16;;;;;;;15.35;3.78;;;;;;;9.86;83.66;100750.66;4769322;30;20581;-80
2024/02/20 01:13:43;;;;;;;27.42;4.13;;;;;;;9.86;83.81;100748.03;4753246;30;20059;-80
2024/02/20 01:16:09;;;;;;;27.17;4.03;;;;;;;9.84;83.76;100749.88;4769159;30;20546;-79
2024/02/20 01:18:37;;;;;;;23.27;3.92;;;;;;;9.82;83.58;100749.06;4769056;30;20052;-80
2024/02/20 01:21:04;;;;;;;31.25;4.80;;;;;;;9.80;83.76;100749.16;4753397;30;20062;-80
2024/02/20 01:23:31;;;;;;;31.92;4.60;;;;;;;9.78;83.46;100746.59;4768973;30;20067;-82
2024/02/20 01:25:57;;;;;;;26.20;4.85;;;;;;;9.77;83.57;100757.16;4769272;30;20091;-80
2024/02/20 01:28:24;;;;;;;24.45;4.20;;;;;;;9.75;83.65;100756.34;4768609;30;20113;-79
2024/02/20 01:30:51;;;;;;;20.25;4.25;;;;;;;9.73;83.62;100756.41;4769109;30;20596;-80
2024/02/20 01:33:18;;;;;;;23.25;4.45;;;;;;;9.72;83.62;100762.56;4768993;30;20056;-85
2024/02/20 01:35:44;;;;;;;25.60;4.32;;;;;;;9.70;83.76;100760.91;4753146;30;20055;-77
2024/02/20 01:38:12;;;;;;;30.40;5.03;;;;;;;9.69;83.75;100757.44;4768747;30;20070;-77
2024/02/20 01:40:39;;;;;;;20.35;4.35;;;;;;;9.68;83.74;100750.44;4768935;30;20117;-81
2024/02/20 01:43:09;;;;;;;34.67;5.00;;;;;;;9.67;83.69;100767.16;4768720;30;20148;-80
2024/02/20 01:45:36;;;;;;;25.33;4.15;;;;;;;9.67;83.60;100758.38;4769013;30;20104;-79
2024/02/20 01:48:04;;;;;;;28.63;5.47;;;;;;;9.65;83.66;100764.56;4768713;30;20077;-79
2024/02/20 01:50:34;;;;;;;30.73;4.70;;;;;;;9.64;83.46;100762.00;4768821;30;20059;-81
2024/02/20 01:53:02;;;;;;;29.02;5.13;;;;;;;9.63;83.56;100768.16;4768576;30;20051;-83
2024/02/20 01:55:31;;;;;;;30.02;5.18;;;;;;;9.62;83.39;100766.47;4752508;30;20719;-83
2024/02/20 01:57:57;;;;;;;31.15;5.13;;;;;;;9.60;83.63;100768.28;4767132;30;20098;-80
2024/02/20 02:00:24;;;;;;;31.90;6.22;;;;;;;9.59;83.70;100777.09;4774387;30;20090;-84
2024/02/20 02:02:51;;;;;;;31.25;5.60;;;;;;;9.58;83.78;100772.75;4768483;30;20051;-79
2024/02/20 02:05:19;;;;;;;32.72;5.35;;;;;;;9.57;83.79;100768.41;4768001;30;20095;-81
2024/02/20 02:07:49;;;;;;;31.83;5.43;;;;;;;9.55;83.85;100775.47;4768176;30;20108;-78
2024/02/20 02:10:16;;;;;;;27.52;5.18;;;;;;;9.55;83.90;100765.84;4768278;30;20120;-80
2024/02/20 02:12:43;;;;;;;34.28;5.25;;;;;;;9.56;84.15;100771.94;4768189;30;20779;-79
2024/02/20 02:15:09;;;;;;;29.05;5.40;;;;;;;9.56;84.18;100779.81;4768442;30;20056;-82
2024/02/20 02:17:36;;;;;;;28.15;4.85;;;;;;;9.57;84.13;100781.56;4768074;30;20052;-78
2024/02/20 02:20:05;;;;;;;33.55;5.57;;;;;;;9.57;84.03;100785.03;4768263;30;20907;-80
2024/02/20 02:22:32;;;;;;;21.08;4.72;;;;;;;9.57;84.20;100782.38;4752182;30;20060;-79
2024/02/20 02:25:00;;;;;;;24.17;5.88;;;;;;;9.58;83.72;100783.25;4768453;30;20055;-80
2024/02/20 02:27:26;;;;;;;36.35;5.80;;;;;;;9.58;83.84;100786.75;4766644;30;20419;-80
2024/02/20 02:29:53;;;;;;;31.38;5.53;;;;;;;9.58;83.90;100785.88;4768013;30;20607;-79
2024/02/20 02:32:19;;;;;;;32.63;5.85;;;;;;;9.58;83.76;100778.00;4766585;30;20571;-78
2024/02/20 02:34:47;;;;;;;29.80;5.50;;;;;;;9.57;83.84;100779.75;4768004;30;20055;-80
2024/02/20 02:37:13;;;;;;;29.38;4.60;;;;;;;9.58;83.91;100775.38;4767630;30;20051;-80
2024/02/20 02:39:40;;;;;;;30.05;5.30;;;;;;;9.56;83.75;100780.69;4768336;30;20052;-80
2024/02/20 02:42:06;;;;;;;39.10;6.18;;;;;;;9.58;83.96;100783.25;4766884;30;20063;-80
2024/02/20 02:44:33;;;;;;;41.15;6.68;;;;;;;9.56;83.90;100783.31;4768088;30;20117;-77
2024/02/20 02:47:00;;;;;;;30.83;6.18;;;;;;;9.56;83.85;100785.94;4767721;30;20067;-80
2024/02/20 02:49:26;;;;;;;30.38;5.75;;;;;;;9.57;83.90;100792.91;4767915;30;20132;-80
2024/02/20 02:51:53;;;;;;;37.90;6.82;;;;;;;9.57;83.60;100798.16;4766629;30;20056;-81
2024/02/20 02:54:20;;;;;;;30.92;4.80;;;;;;;9.56;83.74;100788.56;4767746;30;20532;-78
2024/02/20 02:56:47;;;;;;;32.50;5.93;;;;;;;9.55;83.42;100789.50;4751908;30;20051;-80
2024/02/20 02:59:14;;;;;;;29.20;6.15;;;;;;;9.54;83.72;100794.78;4767641;30;20083;-79
2024/02/20 03:01:40;;;;;;;32.50;6.55;;;;;;;9.52;83.73;100790.47;4767766;30;20142;-79
2024/02/20 03:04:07;;;;;;;35.53;5.53;;;;;;;9.52;83.51;100795.72;4767456;30;20578;-80
2024/02/20 03:06:40;;;;;;;36.58;6.10;;;;;;;9.50;82.65;100789.63;4751942;30;20098;-79
2024/02/20 03:09:13;;;;;;;25.48;5.70;;;;;;;9.50;83.46;100787.00;4767516;30;20059;-77
2024/02/20 03:11:40;;;;;;;39.28;6.32;;;;;;;9.50;83.65;100792.28;4767807;30;20056;-80
2024/02/20 03:14:10;;;;;;;30.65;5.03;;;;;;;9.48;83.28;100788.84;4767618;30;20095;-79
2024/02/20 03:16:37;;;;;;;44.58;6.45;;;;;;;9.49;83.71;100787.94;4769064;30;20118;-80
2024/02/20 03:19:03;;;;;;;27.50;5.30;;;;;;;9.48;83.42;100778.34;4771246;30;20727;-80
2024/02/20 03:21:31;;;;;;;36.65;6.25;;;;;;;9.47;83.29;100779.25;4771587;30;20090;-78
2024/02/20 03:23:59;;;;;;;31.70;5.68;;;;;;;9.47;83.39;100796.78;4771137;30;20097;-78
2024/02/20 03:26:26;;;;;;;34.70;6.25;;;;;;;9.45;83.29;100790.72;4771199;30;20071;-80
2024/02/20 03:28:53;;;;;;;36.08;5.28;;;;;;;9.43;83.48;100801.31;4770843;30;20059;-80
2024/02/20 03:31:20;;;;;;;26.33;5.70;;;;;;;9.41;83.53;100797.84;4770931;30;20129;-78
2024/02/20 03:33:47;;;;;;;38.00;6.15;;;;;;;9.39;83.83;100797.91;4770872;30;20056;-80
2024/02/20 03:36:14;;;;;;;37.05;7.68;;;;;;;9.38;83.71;100805.84;4769869;30;20062;-80
2024/02/20 03:38:40;;;;;;;42.78;7.32;;;;;;;9.38;83.73;100814.59;4769645;30;20060;-80
2024/02/20 03:41:07;;;;;;;40.40;7.07;;;;;;;9.38;84.22;100809.34;4770850;30;20482;-79
2024/02/20 03:43:35;;;;;;;31.48;6.20;;;;;;;9.38;83.93;100816.34;4770932;30;20106;-80
2024/02/20 03:46:05;;;;;;;32.60;6.30;;;;;;;9.39;83.91;100811.03;4770669;30;20051;-80
2024/02/20 03:48:32;;;;;;;34.40;6.45;;;;;;;9.38;84.17;100811.97;4770738;30;20152;-77
2024/02/20 03:51:00;;;;;;;39.60;6.75;;;;;;;9.38;83.96;100819.84;4770644;30;20059;-80
2024/02/20 03:53:28;;;;;;;29.58;5.68;;;;;;;9.37;84.05;100815.50;4770643;30;20052;-79
2024/02/20 04:01:22;;;;;;;29.38;5.70;;;;;;;9.38;83.81;100809.34;4861719;24;20843;-80
2024/02/20 04:03:48;;;;;;;39.17;7.15;;;;;;;9.38;83.75;100813.72;4825219;29;20058;-79
2024/02/20 04:06:16;;;;;;;31.38;6.35;;;;;;;9.38;84.01;100824.22;4824901;29;20055;-79
2024/02/20 04:08:43;;;;;;;38.58;6.15;;;;;;;9.38;83.98;100817.22;4824599;29;20058;-79
2024/02/20 04:11:09;;;;;;;30.15;6.18;;;;;;;9.38;83.95;100814.59;4824601;29;20093;-79
2024/02/20 04:13:36;;;;;;;37.30;6.45;;;;;;;9.38;83.85;100813.72;4824841;29;20061;-79
2024/02/20 04:16:03;;;;;;;42.30;6.63;;;;;;;9.39;83.68;100812.84;4824761;29;20062;-79
2024/02/20 04:18:30;;;;;;;36.60;6.65;;;;;;;9.39;83.81;100820.72;4824475;29;20093;-79
2024/02/20 04:20:56;;;;;;;32.10;6.65;;;;;;;9.39;83.93;100815.47;4824623;29;20125;-79
2024/02/20 04:23:23;;;;;;;29.23;5.82;;;;;;;9.39;83.88;100820.72;4824273;29;20141;-79
2024/02/20 04:25:50;;;;;;;39.35;6.82;;;;;;;9.39;83.59;100812.84;4824429;29;20416;-79
2024/02/20 04:28:16;;;;;;;29.77;5.70;;;;;;;9.39;83.67;100807.59;4823855;29;20050;-79
2024/02/20 04:30:44;;;;;;;31.90;5.90;;;;;;;9.38;83.49;100811.97;4824425;29;20062;-78
2024/02/20 04:33:11;;;;;;;27.92;5.43;;;;;;;9.38;83.40;100813.72;4824260;29;20050;-79
2024/02/20 04:35:38;;;;;;;34.40;6.65;;;;;;;9.37;83.12;100809.38;4824504;29;20085;-79
2024/02/20 04:38:05;;;;;;;37.35;5.55;;;;;;;9.35;83.23;100805.97;4823738;29;20060;-79
2024/02/20 04:40:32;;;;;;;36.10;5.80;;;;;;;9.33;82.97;100816.53;4824449;29;20062;-79
2024/02/20 04:42:59;;;;;;;31.70;5.38;;;;;;;9.32;83.18;100813.94;4824347;29;20110;-79
2024/02/20 04:45:26;;;;;;;30.38;4.93;;;;;;;9.29;83.28;100820.16;4824430;29;20405;-79
2024/02/20 04:47:53;;;;;;;31.60;6.10;;;;;;;9.27;83.29;100816.72;4824017;29;20577;-79
2024/02/20 04:50:20;;;;;;;27.17;5.05;;;;;;;9.27;83.37;100821.13;4824060;29;20050;-79
2024/02/20 04:52:47;;;;;;;32.13;5.53;;;;;;;9.25;83.46;100827.31;4823906;29;20058;-78
2024/02/20 04:55:13;;;;;;;23.67;5.72;;;;;;;9.25;83.78;100832.56;4824267;29;20072;-78
2024/02/20 04:57:40;;;;;;;31.30;5.85;;;;;;;9.26;83.96;100828.16;4824054;29;20062;-78
2024/02/20 05:00:10;;;;;;;31.55;5.45;;;;;;;9.26;84.23;100825.53;4824293;29;20467;-78
2024/02/20 05:02:38;;;;;;;40.38;6.95;;;;;;;9.27;84.11;100829.84;4823918;29;20050;-79
2024/02/20 05:05:05;;;;;;;30.10;6.22;;;;;;;9.28;84.20;100828.09;4823939;29;20085;-78
2024/02/20 05:07:31;;;;;;;32.50;5.97;;;;;;;9.29;84.21;100824.56;4823775;29;20050;-79
2024/02/20 05:09:58;;;;;;;29.75;5.80;;;;;;;9.31;84.36;100825.38;4823982;29;20081;-79
2024/02/20 05:12:25;;;;;;;32.30;7.07;;;;;;;9.30;83.96;100818.41;4823628;29;20493;-79
2024/02/20 05:14:51;;;;;;;36.47;6.90;;;;;;;9.30;83.82;100821.03;4823985;29;20054;-78
2024/02/20 05:17:18;;;;;;;27.17;5.40;;;;;;;9.30;83.76;100823.66;4823786;29;20051;-79
2024/02/20 05:19:45;;;;;;;24.42;4.88;;;;;;;9.30;83.61;100823.66;4823528;29;20062;-79
2024/02/20 05:22:12;;;;;;;27.20;5.88;;;;;;;9.29;83.74;100821.94;4823468;29;20107;-79
2024/02/20 05:24:41;;;;;;;40.35;6.28;;;;;;;9.27;83.37;100818.50;4823366;29;20796;-79
2024/02/20 05:27:08;;;;;;;36.08;5.85;;;;;;;9.25;83.25;100831.69;4823552;29;20097;-79
2024/02/20 05:29:34;;;;;;;29.88;5.88;;;;;;;9.23;83.54;100831.75;4823551;29;20100;-79
2024/02/20 05:32:01;;;;;;;35.83;6.13;;;;;;;9.21;83.54;100835.34;4822938;29;20127;-79
2024/02/20 05:34:27;;;;;;;34.35;5.78;;;;;;;9.20;83.58;100831.00;4823143;29;20611;-79
2024/02/20 05:36:54;;;;;;;31.63;5.93;;;;;;;9.17;83.88;100831.97;4823189;29;20054;-79
2024/02/20 05:39:21;;;;;;;26.55;4.93;;;;;;;9.17;84.04;100839.84;4822498;29;20504;-78
2024/02/20 05:41:47;;;;;;;36.92;6.38;;;;;;;9.17;84.42;100837.22;4823207;29;20079;-79
2024/02/20 05:44:14;;;;;;;36.13;5.70;;;;;;;9.17;84.19;100831.97;4823139;29;20085;-78
2024/02/20 05:46:42;;;;;;;26.83;4.97;;;;;;;9.18;84.54;100832.81;4822946;29;20046;-79
2024/02/20 05:49:09;;;;;;;37.53;5.88;;;;;;;9.19;84.29;100835.38;4822784;29;20141;-79
2024/02/20 05:51:36;;;;;;;31.25;5.45;;;;;;;9.19;84.22;100830.13;4823213;29;20054;-79
2024/02/20 05:54:02;;;;;;;29.85;5.95;;;;;;;9.19;84.25;100835.38;4823056;29;20058;-79
2024/02/20 05:56:31;;;;;;;29.55;5.53;;;;;;;9.20;84.17;100837.09;4822964;29;20473;-79
2024/02/20 05:58:58;;;;;;;34.15;6.63;;;;;;;9.20;84.14;100844.13;4822734;29;20141;-79
2024/02/20 06:01:25;;;;;;;30.35;5.88;;;;;;;9.18;83.87;100841.56;4822682;29;20769;-79
2024/02/20 06:03:52;;;;;;;32.78;5.32;;;;;;;9.19;83.91;100845.91;4822784;29;20054;-78
2024/02/20 06:06:18;;;;;;;34.75;5.70;;;;;;;9.18;84.24;100849.44;4823004;29;20107;-79
2024/02/20 06:08:46;;;;;;;32.35;6.03;;;;;;;9.17;83.89;100850.34;4822474;29;20064;-79
2024/02/20 06:11:15;;;;;;;35.20;5.57;;;;;;;9.16;83.90;100848.63;4822989;29;20070;-78
2024/02/20 06:13:43;;;;;;;31.58;5.70;;;;;;;9.16;83.65;100845.97;4822415;29;20050;-79
2024/02/20 06:16:10;;;;;;;33.58;5.38;;;;;;;9.15;83.70;100844.28;4822690;29;20234;-79
2024/02/20 06:18:39;;;;;;;34.97;5.85;;;;;;;9.11;83.38;100854.03;4822642;29;20066;-76
2024/02/20 06:21:08;;;;;;;26.75;5.05;;;;;;;9.10;83.87;100847.06;4822467;29;20066;-79
2024/02/20 06:23:37;;;;;;;28.67;5.57;;;;;;;9.11;84.00;100851.41;4821901;29;20088;-79
2024/02/20 06:26:05;;;;;;;25.77;6.03;;;;;;;9.09;83.67;100845.34;4822689;29;20496;-79
2024/02/20 06:28:32;;;;;;;34.38;6.25;;;;;;;9.09;83.73;100847.13;4806076;29;20111;-78
2024/02/20 06:31:00;;;;;;;33.72;5.65;;;;;;;9.05;83.62;100848.97;4822932;29;20058;-79
2024/02/20 06:33:27;;;;;;;31.35;5.68;;;;;;;9.05;83.93;100846.34;4806382;29;20061;-80
2024/02/20 06:35:54;;;;;;;25.33;5.22;;;;;;;9.03;84.08;100853.44;4821912;29;20047;-78
2024/02/20 06:38:20;;;;;;;33.30;6.35;;;;;;;9.02;84.06;100841.22;4822534;29;20058;-79
2024/02/20 06:40:47;;;;;;;36.00;6.45;;;;;;;8.97;83.25;100846.59;4822653;29;20054;-79
2024/02/20 06:43:14;;;;;;;35.95;6.78;;;;;;;8.95;83.30;100843.19;4822779;29;20066;-79
2024/02/20 06:45:40;;;;;;;35.50;5.82;;;;;;;8.91;83.47;100851.19;4822814;29;20050;-78
2024/02/20 06:48:07;;;;;;;40.25;6.97;;;;;;;8.87;83.82;100850.44;4822330;29;20057;-79
2024/02/20 06:50:34;;;;;;;38.85;6.80;;;;;;;8.84;83.92;100846.16;4822372;29;20060;-79
2024/02/20 06:53:00;;;;;;;40.08;6.95;;;;;;;8.81;83.87;100850.63;4822547;29;20144;-79
2024/02/20 06:55:27;;;;;;;33.88;7.72;;;;;;;8.78;84.04;100846.34;4822515;29;20059;-79
2024/02/20 06:57:57;;;;;;;35.63;6.20;;;;;;;8.75;84.48;100849.09;4822489;29;20085;-79
2024/02/20 07:00:25;;;;;;;38.97;6.50;;;;;;;8.75;84.96;100845.59;4822750;29;20066;-79
2024/02/20 07:02:51;;;;;;;41.25;7.00;;;;;;;8.75;84.85;100850.84;4822507;29;20153;-79
2024/02/20 07:05:18;;;;;;;34.85;6.38;;;;;;;8.74;84.84;100844.72;4822671;29;20054;-79
2024/02/20 07:07:45;;;;;;;39.55;7.18;;;;;;;8.73;84.95;100851.75;4822169;29;20050;-79
2024/02/20 07:10:13;;;;;;;31.92;5.85;;;;;;;8.74;84.76;100849.97;4822325;29;20416;-79
2024/02/20 07:12:39;;;;;;;30.95;6.25;;;;;;;8.73;84.60;100853.50;4822466;29;20062;-78
2024/02/20 07:15:06;;;;;;;35.70;6.80;;;;;;;8.71;84.40;100845.69;4822424;29;20070;-78
2024/02/20 07:17:34;;;;;;;37.97;7.07;;;;;;;8.70;84.52;100849.22;4821815;29;20062;-78
2024/02/20 07:20:03;;;;;;;33.90;6.35;;;;;;;8.69;84.44;100852.75;4822301;29;20141;-78
2024/02/20 07:22:32;;;;;;;31.73;6.80;;;;;;;8.69;84.77;100849.25;4822243;29;20170;-79
2024/02/20 07:25:05;;;;;;;36.30;6.25;;;;;;;8.68;85.03;100852.81;4822901;29;20054;-79
2024/02/20 07:27:36;;;;;;;28.65;6.40;;;;;;;8.68;85.46;100848.38;4808796;29;20062;-78
2024/02/20 07:30:11;;;;;;;25.45;5.80;;;;;;;8.70;85.53;100856.22;4824474;29;20526;-79
2024/02/20 07:32:49;;;;;;;34.10;6.88;;;;;;;8.71;85.39;100850.94;4809237;29;20431;-79
2024/02/20 07:35:17;;;;;;;36.10;7.00;;;;;;;8.72;85.29;100852.63;4824221;29;20061;-77
2024/02/20 07:37:55;;;;;;;32.55;6.47;;;;;;;8.71;85.25;100852.72;4807316;29;20062;-77
2024/02/20 07:40:22;;;;;;;34.03;6.32;;;;;;;8.71;85.25;100848.31;4807723;29;20137;-77
2024/02/20 07:42:52;;;;;;;24.20;5.88;;;;;;;8.72;85.33;100839.50;4823084;29;20071;-77
2024/02/20 07:45:20;;;;;;;34.60;6.78;;;;;;;8.71;85.36;100835.19;4823274;29;20060;-77
2024/02/20 07:47:51;;;;;;;36.90;6.00;;;;;;;8.74;85.56;100842.09;4823762;29;20062;-78
2024/02/20 07:50:17;;;;;;;35.03;6.70;;;;;;;8.78;85.61;100845.50;4823875;29;20492;-78
2024/02/20 07:52:45;;;;;;;36.78;6.78;;;;;;;8.77;85.43;100844.63;4806927;29;20107;-77
2024/02/20 07:55:13;;;;;;;33.67;6.47;;;;;;;8.79;85.50;100844.59;4807242;29;20054;-77
2024/02/20 07:57:42;;;;;;;41.72;7.20;;;;;;;8.79;85.31;100863.81;4822219;29;20062;-77
2024/02/20 08:00:13;;;;;;;28.65;6.50;;;;;;;8.80;85.04;100864.66;4823592;29;20136;-77
2024/02/20 08:02:43;;;;;;;26.50;4.70;;;;;;;8.82;85.44;100862.88;4824937;29;20475;-77
2024/02/20 08:05:12;;;;;;;26.15;5.38;;;;;;;8.84;85.60;100855.78;4827005;29;20054;-78
2024/02/20 08:07:40;;;;;;;38.70;7.57;;;;;;;8.85;85.62;100860.13;4826385;29;20493;-77
2024/02/20 08:10:11;;;;;;;31.63;6.22;;;;;;;8.86;85.77;100848.75;4825489;29;20115;-77
2024/02/20 08:12:40;;;;;;;31.05;6.80;;;;;;;8.88;85.58;100857.41;4810598;29;20069;-77
2024/02/20 08:15:07;;;;;;;36.67;6.70;;;;;;;8.89;85.55;100856.50;4825435;29;20572;-76
2024/02/20 08:17:40;;;;;;;33.60;7.28;;;;;;;8.89;85.52;100864.38;4826222;29;20055;-77
2024/02/20 08:20:09;;;;;;;32.13;6.60;;;;;;;8.90;85.28;100862.63;4810101;29;20500;-76
2024/02/20 08:22:40;;;;;;;25.25;6.35;;;;;;;8.91;85.21;100870.44;4809411;29;20058;-77
2024/02/20 08:25:07;;;;;;;30.70;7.18;;;;;;;8.91;85.53;100856.44;4824701;29;20050;-77
2024/02/20 08:27:35;;;;;;;29.15;7.25;;;;;;;8.92;85.44;100868.66;4824295;29;20081;-77
2024/02/20 08:30:02;;;;;;;27.58;6.80;;;;;;;8.94;85.81;100867.69;4824715;29;20529;-77
2024/02/20 08:32:28;;;;;;;31.02;6.70;;;;;;;8.95;85.63;100864.19;4824515;29;20115;-77
2024/02/20 08:35:10;;;;;;;29.73;6.97;;;;;;;8.93;84.70;100860.75;4821527;24;20059;-78
2024/02/20 08:37:38;;;;;;;42.73;8.13;;;;;;;8.98;85.21;100869.31;4824178;29;20141;-77
2024/02/20 08:40:30;;;;;;;35.95;7.60;;;;;;;8.93;83.67;100860.75;4823852;29;20363;-77
2024/02/20 08:42:57;;;;;;;30.17;6.35;;;;;;;8.97;85.35;100859.75;4824184;29;20471;-77
2024/02/20 08:45:26;;;;;;;38.65;7.75;;;;;;;8.98;85.21;100865.84;4824170;29;20061;-77
2024/02/20 08:47:54;;;;;;;30.25;7.38;;;;;;;9.00;85.93;100866.66;4823794;29;20420;-78
2024/02/20 08:50:21;;;;;;;32.08;8.05;;;;;;;9.01;85.86;100864.91;4807902;29;20065;-77
2024/02/20 08:52:48;;;;;;;29.38;8.10;;;;;;;9.03;86.18;100866.56;4824539;29;20058;-77
2024/02/20 08:55:15;;;;;;;32.80;7.65;;;;;;;9.05;85.97;100863.88;4824112;29;20858;-78
2024/02/20 08:57:41;;;;;;;32.13;7.97;;;;;;;9.09;85.92;100870.75;4824132;29;20120;-77
2024/02/20 09:00:26;;;;;;;35.13;8.10;;;;;;;9.08;85.54;100864.63;4824020;29;20054;-77
2024/02/20 09:02:54;;;;;;;38.45;8.52;;;;;;;9.10;85.33;100878.59;4824104;29;20050;-77
2024/02/20 09:05:21;;;;;;;40.28;9.25;;;;;;;9.11;85.24;100864.53;4822266;29;20116;-77
2024/02/20 09:07:47;;;;;;;36.13;8.85;;;;;;;9.09;85.38;100870.75;4822421;29;20050;-77
2024/02/20 09:10:14;;;;;;;41.35;8.95;;;;;;;9.11;85.34;100871.56;4822237;29;20055;-77
2024/02/20 09:12:41;;;;;;;35.97;9.63;;;;;;;9.09;85.38;100874.22;4806514;29;20107;-78
2024/02/20 09:15:08;;;;;;;30.20;8.52;;;;;;;9.10;85.29;100867.22;4823176;29;20141;-77
2024/02/20 09:17:34;;;;;;;42.58;9.20;;;;;;;9.12;85.74;100868.88;4807285;29;20054;-77
2024/02/20 09:20:01;;;;;;;32.78;9.23;;;;;;;9.14;85.98;100863.59;4824117;29;20061;-78
2024/02/20 09:22:28;;;;;;;32.05;8.45;;;;;;;9.15;85.75;100865.28;4823576;29;20057;-77
2024/02/20 09:24:55;;;;;;;32.40;8.80;;;;;;;9.16;85.62;100867.00;4823879;29;20062;-78
2024/02/20 09:27:22;;;;;;;37.97;8.18;;;;;;;9.19;85.95;100863.44;4807064;29;20452;-78
2024/02/20 09:29:49;;;;;;;37.65;8.88;;;;;;;9.22;86.39;100866.81;4823793;29;20134;-77
2024/02/20 09:32:15;;;;;;;33.95;9.57;;;;;;;9.25;86.23;100871.09;4823927;29;20054;-77
2024/02/20 09:34:43;;;;;;;33.83;8.40;;;;;;;9.27;85.78;100873.69;4823642;29;20061;-77
2024/02/20 09:37:10;;;;;;;29.67;8.82;;;;;;;9.30;85.77;100873.59;4807408;29;20115;-78
2024/02/20 09:39:37;;;;;;;31.70;8.93;;;;;;;9.33;86.20;100873.47;4823775;29;20094;-77
2024/02/20 09:42:07;;;;;;;42.80;10.13;;;;;;;9.34;85.74;100864.66;4823659;29;20156;-78
2024/02/20 09:44:36;;;;;;;42.20;10.73;;;;;;;9.36;85.74;100876.88;4823544;29;20066;-77
2024/02/20 09:47:03;;;;;;;33.00;9.63;;;;;;;9.37;85.74;100875.09;4823479;29;20106;-77
2024/02/20 09:49:32;;;;;;;44.47;9.90;;;;;;;9.39;85.72;100870.66;4823535;29;20501;-77
2024/02/20 09:52:01;;;;;;;34.88;9.93;;;;;;;9.39;85.62;100881.16;4823455;29;20094;-77
2024/02/20 09:54:33;;;;;;;38.47;10.27;;;;;;;9.41;85.37;100866.19;4823384;29;20115;-77
2024/02/20 09:59:46;;;;;;;36.15;11.13;;;;;;;9.47;85.51;100887.03;5377381;24;20311;-80
2024/02/20 10:02:19;;;;;;;37.17;11.90;;;;;;;9.47;84.96;100884.38;4822869;29;20141;-77
2024/02/20 10:04:46;;;;;;;28.63;8.40;;;;;;;9.54;86.02;100878.91;4823192;29;20062;-77
2024/02/20 10:07:17;;;;;;;27.40;11.32;;;;;;;9.56;85.95;100869.19;4822606;29;20066;-78
2024/02/20 10:09:44;;;;;;;40.97;14.35;;;;;;;9.58;85.84;100864.75;4822782;29;20149;-79
2024/02/20 10:12:19;;;;;;;34.67;13.82;;;;;;;9.58;84.24;100870.88;4806603;29;20055;-79
2024/02/20 10:14:46;;;;;;;43.97;13.73;;;;;;;9.63;86.06;100861.06;4806485;29;20054;-77
2024/02/20 10:17:17;;;;;;;43.05;14.15;;;;;;;9.63;85.22;100861.06;4822399;29;20089;-77
2024/02/20 10:19:43;;;;;;;41.88;14.43;;;;;;;9.67;85.43;100851.28;4806242;29;20050;-76
2024/02/20 10:22:10;;;;;;;49.30;16.83;;;;;;;9.70;85.75;100856.44;4822804;29;20055;-76
2024/02/20 10:24:38;;;;;;;35.50;14.35;;;;;;;9.74;86.28;100846.66;4822364;29;20118;-78
2024/02/20 10:27:05;;;;;;;48.58;16.85;;;;;;;9.79;85.97;100852.59;4821986;29;20141;-77
2024/02/20 10:29:32;;;;;;;42.63;15.70;;;;;;;9.85;86.66;100854.16;4822377;29;20054;-77
2024/02/20 10:31:59;;;;;;;47.50;16.33;;;;;;;9.89;86.54;100861.03;4822264;29;20065;-77
2024/02/20 10:34:25;;;;;;;45.65;16.48;;;;;;;9.92;85.91;100860.91;4822247;29;20059;-78
2024/02/20 10:37:05;;;;;;;37.47;15.35;;;;;;;9.93;83.69;100864.38;4822257;29;20058;-82
2024/02/20 10:39:33;;;;;;;57.55;17.45;;;;;;;9.99;85.72;100857.13;4822350;29;20054;-77
2024/02/20 10:42:04;;;;;;;42.08;15.68;;;;;;;10.00;85.05;100856.25;4805798;29;20066;-77
2024/02/20 10:44:33;;;;;;;36.97;15.23;;;;;;;10.03;85.68;100850.84;4822260;29;20059;-79
2024/02/20 10:47:01;;;;;;;55.75;16.02;;;;;;;10.07;85.57;100838.44;4822064;29;20154;-77
2024/02/20 10:49:33;;;;;;;50.88;15.25;;;;;;;10.13;85.73;100847.91;4822375;29;20062;-79
2024/02/20 10:52:05;;;;;;;45.70;15.20;;;;;;;10.18;85.21;100840.69;4806025;29;20094;-79
2024/02/20 10:54:33;;;;;;;44.45;16.83;;;;;;;10.23;85.70;100849.25;4822277;29;20149;-77
2024/02/20 10:57:13;;;;;;;35.55;15.63;;;;;;;10.31;85.81;100843.69;4821899;29;20135;-77
2024/02/20 10:59:42;;;;;;;37.53;13.48;;;;;;;10.34;85.06;100855.88;4805812;29;20050;-77
2024/02/20 11:02:10;;;;;;;41.40;13.18;;;;;;;10.39;85.50;100836.34;4822131;29;20145;-76
2024/02/20 11:04:38;;;;;;;46.22;15.20;;;;;;;10.42;85.43;100827.47;4822134;29;20066;-78
2024/02/20 11:07:06;;;;;;;37.42;13.93;;;;;;;10.46;85.17;100844.91;4821706;29;20124;-78
2024/02/20 11:09:33;;;;;;;34.40;13.65;;;;;;;10.52;85.75;100835.91;4821738;29;20137;-79
2024/02/20 11:12:09;;;;;;;42.85;13.63;;;;;;;10.53;81.84;100841.13;4821701;29;20095;-78
2024/02/20 11:14:36;;;;;;;37.25;11.68;;;;;;;10.61;84.82;100826.81;4821896;29;20046;-76
2024/02/20 11:17:13;;;;;;;41.97;13.45;;;;;;;10.63;82.65;100824.94;4821588;29;20141;-76
2024/02/20 11:20:14;;;;;;;37.75;11.50;;;;;;;10.65;80.83;100831.03;4821863;29;20055;-77
2024/02/20 11:22:42;;;;;;;37.20;11.55;;;;;;;10.73;84.61;100809.66;4805599;29;20054;-77
2024/02/20 11:25:13;;;;;;;30.75;11.30;;;;;;;10.75;83.77;100803.41;4821661;29;20066;-77
2024/02/20 11:27:42;;;;;;;36.53;11.90;;;;;;;10.79;84.26;100812.88;4821559;29;20085;-79
2024/02/20 11:30:23;;;;;;;35.50;12.02;;;;;;;10.77;82.07;100805.97;4805394;29;20516;-77
2024/02/20 11:32:51;;;;;;;35.03;11.15;;;;;;;10.84;83.56;100807.41;4805283;29;20086;-77
2024/02/20 11:35:33;;;;;;;35.13;11.75;;;;;;;10.84;82.74;100799.50;4821723;29;20054;-75